createdAt,value
2023-03-21T00:00:46.200Z,441.87
2023-03-21T00:06:17.926Z,442.05
2023-03-21T00:11:50.172Z,442.74
2023-03-21T00:17:21.598Z,443.09
2023-03-21T00:22:53.669Z,443.35
2023-03-21T00:28:25.130Z,443.70
2023-03-21T00:33:57.741Z,444.04
2023-03-21T00:39:29.476Z,444.04
2023-03-21T00:45:01.535Z,444.22
2023-03-21T00:50:35.982Z,444.74
2023-03-21T00:56:07.631Z,445.26
2023-03-21T01:01:39.396Z,445.61
2023-03-21T01:07:11.055Z,446.30
2023-03-21T01:12:43.170Z,446.65
2023-03-21T01:18:15.317Z,447.17
2023-03-21T01:23:47.518Z,447.43
2023-03-21T01:29:18.934Z,447.61
2023-03-21T01:34:51.700Z,447.78
2023-03-21T01:42:45.969Z,448.30
2023-03-21T01:48:17.689Z,448.30
2023-03-21T01:53:49.312Z,448.48
2023-03-21T01:59:20.857Z,449.00
2023-03-21T02:04:52.636Z,449.52
2023-03-21T02:10:25.071Z,449.52
2023-03-21T02:15:57.139Z,449.87
2023-03-21T02:21:29.015Z,449.69
2023-03-21T02:27:04.235Z,449.87
2023-03-21T02:32:37.767Z,449.69
2023-03-21T02:38:04.397Z,449.87
2023-03-21T02:43:36.040Z,450.04
2023-03-21T02:49:08.025Z,450.04
2023-03-21T02:54:48.110Z,450.22
2023-03-21T03:00:16.693Z,450.04
2023-03-21T03:05:43.451Z,450.22
2023-03-21T03:11:15.738Z,450.22
2023-03-21T03:16:47.912Z,450.22
2023-03-21T03:22:19.891Z,450.22
2023-03-21T03:27:52.213Z,450.74
2023-03-21T03:33:24.444Z,450.74
2023-03-21T03:38:56.017Z,451.26
2023-03-21T03:44:28.246Z,451.09
2023-03-21T03:50:00.218Z,451.26
2023-03-21T03:55:32.401Z,451.09
2023-03-21T04:01:04.317Z,451.35
2023-03-21T04:06:36.364Z,451.35
2023-03-21T04:12:08.190Z,451.35
2023-03-21T04:17:40.142Z,451.52
2023-03-21T04:23:12.078Z,451.52
2023-03-21T04:28:43.803Z,451.87
2023-03-21T04:34:15.787Z,451.87
2023-03-21T04:39:47.826Z,452.04
2023-03-21T04:45:20.406Z,452.56
2023-03-21T04:50:52.289Z,452.74
2023-03-21T04:56:24.774Z,452.56
2023-03-21T05:01:57.253Z,452.74
2023-03-21T05:07:29.362Z,452.56
2023-03-21T05:13:01.095Z,452.39
2023-03-21T05:18:33.066Z,452.74
2023-03-21T05:24:05.202Z,452.91
2023-03-21T05:29:36.525Z,452.74
2023-03-21T05:35:08.118Z,452.91
2023-03-21T05:40:40.326Z,452.91
2023-03-21T05:46:12.216Z,452.91
2023-03-21T05:51:44.382Z,452.56
2023-03-21T05:57:17.299Z,452.22
2023-03-21T06:02:48.962Z,451.26
2023-03-21T06:08:20.589Z,451.09
2023-03-21T06:13:52.236Z,450.91
2023-03-21T06:19:24.268Z,450.91
2023-03-21T06:24:55.826Z,450.91
2023-03-21T06:30:27.935Z,450.74
2023-03-21T06:36:00.581Z,450.39
2023-03-21T06:41:32.558Z,450.04
2023-03-21T06:47:04.831Z,449.87
2023-03-21T06:52:37.569Z,449.52
2023-03-21T06:58:09.881Z,449.35
2023-03-21T07:03:41.874Z,449.69
2023-03-21T07:09:13.803Z,449.87
2023-03-21T07:14:45.953Z,449.87
2023-03-21T07:20:18.111Z,449.87
2023-03-21T07:25:49.855Z,449.87
2023-03-21T07:31:21.982Z,449.52
2023-03-21T07:36:53.960Z,449.69
2023-03-21T07:42:26.055Z,449.69
2023-03-21T07:47:58.311Z,449.52
2023-03-21T07:53:30.494Z,449.35
2023-03-21T07:59:02.746Z,449.35
2023-03-21T08:04:35.108Z,449.35
2023-03-21T08:10:07.528Z,449.69
2023-03-21T08:15:39.813Z,449.69
2023-03-21T08:21:11.746Z,449.69
2023-03-21T08:26:43.847Z,449.87
2023-03-21T08:32:15.875Z,450.04
2023-03-21T08:37:47.922Z,449.87
2023-03-21T08:43:20.323Z,450.56
2023-03-21T08:48:52.336Z,450.74
2023-03-21T08:54:24.134Z,450.74
2023-03-21T08:59:56.063Z,451.09
2023-03-21T09:05:33.982Z,451.26
2023-03-21T09:11:06.706Z,451.52
2023-03-21T09:16:38.915Z,451.69
2023-03-21T09:22:11.100Z,452.04
2023-03-21T09:27:45.850Z,452.04
2023-03-21T09:38:48.622Z,452.39
2023-03-21T09:44:21.324Z,452.39
2023-03-21T09:49:56.499Z,452.74
2023-03-21T09:55:24.720Z,452.91
2023-03-21T10:00:56.909Z,453.09
2023-03-21T10:06:28.697Z,453.43
2023-03-21T10:12:00.900Z,453.78
2023-03-21T10:17:33.301Z,454.48
2023-03-21T10:23:05.353Z,454.65
2023-03-21T10:34:07.031Z,455.35
2023-03-21T10:45:08.348Z,456.48
2023-03-21T10:50:40.752Z,456.65
2023-03-21T11:04:03.298Z,457.87
2023-03-21T11:09:35.113Z,457.87
2023-03-21T11:15:07.174Z,458.22
2023-03-21T11:20:38.812Z,458.74
2023-03-21T11:26:10.550Z,459.26
2023-03-21T11:42:42.246Z,461.79
2023-03-21T11:48:14.510Z,462.66
2023-03-21T11:53:45.905Z,463.18
2023-03-21T11:59:17.699Z,463.70
2023-03-21T12:04:49.711Z,464.40
2023-03-21T12:10:21.486Z,465.18
2023-03-21T12:15:55.440Z,466.05
2023-03-21T12:21:24.820Z,466.92
2023-03-21T12:26:58.169Z,467.80
2023-03-21T12:32:29.095Z,468.32
2023-03-21T12:38:01.030Z,468.49
2023-03-21T12:43:32.657Z,468.84
2023-03-21T12:49:04.641Z,469.10
2023-03-21T12:54:36.417Z,469.45
2023-03-21T13:00:08.233Z,469.62
2023-03-21T13:05:39.993Z,470.67
2023-03-21T13:11:11.496Z,471.19
2023-03-21T13:16:43.507Z,472.06
2023-03-21T13:22:15.598Z,472.59
2023-03-21T13:27:47.431Z,473.20
2023-03-21T13:33:19.289Z,473.55
2023-03-21T13:38:51.036Z,473.89
2023-03-21T13:44:23.026Z,474.07
2023-03-21T13:49:54.731Z,474.42
2023-03-21T13:55:26.550Z,474.59
2023-03-21T14:06:28.286Z,475.64
2023-03-21T14:12:07.084Z,476.33
2023-03-21T14:17:34.076Z,476.51
2023-03-21T14:23:06.385Z,477.03
2023-03-21T14:28:38.031Z,477.21
2023-03-21T14:34:09.887Z,477.38
2023-03-21T14:39:41.796Z,477.82
2023-03-21T14:45:14.094Z,477.99
2023-03-21T14:50:46.221Z,478.17
2023-03-21T14:56:18.049Z,478.86
2023-03-21T15:01:50.190Z,479.21
2023-03-21T15:07:22.364Z,479.21
2023-03-21T15:12:54.269Z,479.56
2023-03-21T15:18:26.714Z,479.56
2023-03-21T15:23:59.024Z,479.91
2023-03-21T15:29:31.456Z,479.91
2023-03-21T15:35:03.284Z,479.74
2023-03-21T15:40:35.083Z,480.08
2023-03-21T15:46:06.776Z,480.26
2023-03-21T15:51:38.601Z,480.61
2023-03-21T15:57:10.547Z,480.78
2023-03-21T16:02:42.808Z,480.61
2023-03-21T16:08:14.102Z,480.78
2023-03-21T16:13:46.157Z,480.61
2023-03-21T16:19:18.083Z,480.08
2023-03-21T16:24:49.753Z,479.91
2023-03-21T16:30:21.266Z,479.74
2023-03-21T16:35:52.991Z,479.56
2023-03-21T16:41:24.379Z,479.56
2023-03-21T16:46:57.000Z,479.39
2023-03-21T16:52:28.990Z,479.21
2023-03-21T16:58:01.054Z,478.86
2023-03-21T17:03:32.738Z,478.86
2023-03-21T17:09:04.260Z,478.51
2023-03-21T17:14:35.586Z,478.51
2023-03-21T17:20:07.234Z,478.34
2023-03-21T17:25:39.069Z,478.51
2023-03-21T17:31:10.988Z,478.17
2023-03-21T17:36:42.720Z,478.17
2023-03-21T17:42:14.496Z,477.99
2023-03-21T17:47:46.455Z,478.17
2023-03-21T17:53:18.766Z,478.17
2023-03-21T18:04:20.342Z,477.73
2023-03-21T18:09:52.424Z,477.73
2023-03-21T18:15:24.206Z,477.56
2023-03-21T18:20:57.943Z,477.38
2023-03-21T18:26:27.492Z,477.38
2023-03-21T18:32:06.274Z,477.03
2023-03-21T18:37:31.020Z,476.86
2023-03-21T18:43:56.100Z,476.33
2023-03-21T18:48:35.722Z,476.16
2023-03-21T18:54:07.166Z,476.33
2023-03-21T18:59:38.731Z,475.99
2023-03-21T19:05:10.503Z,475.81
2023-03-21T19:10:42.465Z,475.64
2023-03-21T19:16:14.350Z,475.29
2023-03-21T19:21:46.388Z,475.11
2023-03-21T19:27:18.657Z,475.29
2023-03-21T19:32:50.309Z,474.94
2023-03-21T19:38:22.162Z,474.77
2023-03-21T19:43:56.393Z,474.42
2023-03-21T19:49:37.033Z,473.89
2023-03-21T19:54:57.226Z,473.89
2023-03-21T19:57:21.541Z,473.72
2023-03-21T20:02:53.354Z,473.72
2023-03-21T20:08:25.157Z,473.89
2023-03-21T20:13:57.326Z,473.55
2023-03-21T20:19:29.958Z,473.02
2023-03-21T20:25:02.395Z,473.02
2023-03-21T20:30:34.520Z,473.20
2023-03-21T20:41:38.217Z,473.02
2023-03-21T20:47:09.895Z,472.94
2023-03-21T20:53:09.814Z,472.94
2023-03-21T20:58:36.724Z,472.94
2023-03-21T21:03:45.734Z,473.02
2023-03-21T21:09:17.435Z,472.76
2023-03-21T21:14:49.273Z,473.02
2023-03-21T21:20:21.110Z,472.76
2023-03-21T21:25:52.663Z,473.02
2023-03-21T21:31:24.566Z,473.02
2023-03-21T21:36:56.250Z,473.37
2023-03-21T21:42:27.822Z,473.20
2023-03-21T21:47:59.844Z,473.55
2023-03-21T21:53:31.465Z,473.55
2023-03-21T21:59:03.691Z,473.37
2023-03-21T22:04:35.614Z,473.72
2023-03-21T22:10:07.603Z,473.55
2023-03-21T22:15:39.967Z,473.20
2023-03-21T22:21:11.926Z,473.37
2023-03-21T22:26:43.598Z,473.20
2023-03-21T22:32:15.351Z,472.76
2023-03-21T22:37:47.198Z,472.59
2023-03-21T22:43:20.021Z,472.59
2023-03-21T22:48:52.267Z,472.59
2023-03-21T22:54:24.336Z,472.76
2023-03-21T22:59:56.245Z,472.59
2023-03-21T23:05:28.474Z,472.41
2023-03-21T23:11:00.241Z,472.24
2023-03-21T23:16:32.183Z,472.24
2023-03-21T23:22:03.899Z,472.24
2023-03-21T23:27:35.898Z,472.59
2023-03-21T23:33:07.618Z,472.94
2023-03-21T23:38:39.626Z,473.02
2023-03-21T23:44:11.515Z,473.37
2023-03-21T23:49:44.034Z,473.55
2023-03-21T23:55:16.067Z,473.72
